Archie Moore (175, 176) Station Data

Red Flag Warning: No
Fire Weather Zone: 250
SDGE Region: Ramona
Lat/Lon: 33.04/-116.958

Observations

Time Wind Speed/Gust Temp(F) RH Fuel Moist Fuel Temp(F) Dewpt(F) Tmax(F) Tmin(F) Accum Precip 10-min Precip SL Press(mb)
6/27 5:00pm 257 8 G 13 89° 23% - - 47° 97.3° 73.1° - - 1007.0
6/27 4:50pm 255 9 G 14 89° 23% - - 46° 97.3° 73.1° - - 1007.0
6/27 4:40pm 249 9 G 14 89° 22% - - 46° 97.3° 73.1° - - 1007.0
6/27 4:30pm 263 9 G 13 90° 22% - - 45° 97.3° 73.1° - - 1007.0
6/27 4:20pm 260 9 G 14 90° 22% - - 46° 97.3° 73.1° - - 1007.0
6/27 4:10pm 257 10 G 16 90° 21% - - 45° 97.3° 73.1° - - 1007.0
6/27 4:00pm 250 10 G 14 90° 20% - - 44° 97.3° 73.1° - - 1007.0
6/27 3:50pm 251 10 G 15 90° 18% - - 41° 97.3° 73.1° - - 1007.0
6/27 3:40pm 249 10 G 15 91° 20% - - 44° 97.3° 73.1° - - 1007.0
6/27 3:30pm 251 12 G 17 90° 23% - - 47° 97.3° 73.1° - - 1007.0
6/27 3:20pm 247 11 G 16 91° 22% - - 46° 97.3° 73.1° - - 1007.0
6/27 3:10pm 253 11 G 17 91° 22% - - 46° 97.3° 73.1° - - 1007.0
6/27 3:00pm 251 12 G 16 91° 21% - - 46° 97.3° 73.1° - - 1007.0
6/27 2:50pm 269 12 G 17 91° 21% - - 46° 97.3° 73.1° - - 1007.0
6/27 2:40pm 244 12 G 17 92° 19% - - 44° 97.3° 73.1° - - 1007.0
6/27 2:30pm 246 11 G 17 93° 18% - - 43° 97.3° 73.1° - - 1007.0
6/27 2:20pm 246 12 G 18 93° 19% - - 44° 97.3° 73.1° - - 1007.0
6/27 2:10pm 250 11 G 17 93° 18% - - 43° 97.3° 73.1° - - 1007.0
6/27 2:00pm 259 10 G 15 95° 19% - - 45° 97.3° 73.1° - - 1007.0
6/27 1:50pm 238 12 G 17 94° 17% - - 42° 97.3° 73.1° - - 1007.0
6/27 1:40pm 236 11 G 16 95° 13% - - 37° 97.3° 73.1° - - 1007.0
6/27 1:30pm 243 11 G 17 95° 13% - - 37° 97.3° 73.1° - - 1007.0
6/27 1:20pm 265 9 G 15 95° 12% - - 35° 97.3° 73.1° - - 1007.0
6/27 1:10pm 290 8 G 14 95° 10% - - 31° 97.3° 73.1° - - 1007.0
6/27 1:00pm 286 9 G 14 95° 10% - - 29° 97.3° 73.1° - - 1007.0
6/27 12:50pm 287 8 G 14 95° 11% - - 32° 97.3° 73.1° - - 1007.0
6/27 12:40pm 291 7 G 14 96° 10% - - 31° 97.3° 73.1° - - 1007.0
6/27 12:30pm 251 7 G 16 97° 12% - - 34° 97.3° 73.1° - - 1007.0
6/27 12:20pm 235 7 G 15 95° 12% - - 36° 96.9° 73.1° - - 1007.0
6/27 12:10pm 238 8 G 14 96° 13% - - 38° 96.9° 73.1° - - 1008.0
6/27 12:00pm 242 9 G 16 95° 14% - - 38° 96.9° 73.1° - - 1008.0
6/27 11:50am 232 7 G 13 96° 13% - - 36° 96.9° 73.1° - - 1008.0
6/27 11:40am 222 8 G 13 96° 11% - - 32° 96.9° 73.1° - - 1008.0
6/27 11:30am 242 7 G 15 96° 9% - - 27° 96.4° 73.1° - - 1008.0
6/27 11:20am 287 5 G 11 95° 8% - - 26° 95.6° 73.1° - - 1008.0
6/27 11:10am 257 6 G 11 94° 8% - - 25° 94.7° 73.1° - - 1008.0
6/27 11:00am 246 7 G 11 94° 8% - - 23° 94.7° 73.1° - - 1008.0
6/27 10:50am 255 6 G 10 94° 8% - - 24° 94.5° 73.1° - - 1008.0
6/27 10:40am 252 5 G 9 94° 7% - - 22° 94° 73.1° - - 1008.0
6/27 10:30am 269 5 G 10 93° 9% - - 25° 93.9° 73.1° - - 1008.0
6/27 10:20am 270 5 G 9 92° 10% - - 27° 93.1° 73.1° - - 1008.0
6/27 10:10am 270 5 G 9 92° 10% - - 27° 92.6° 73.1° - - 1008.0
6/27 10:00am 265 6 G 8 92° 10% - - 27° 92.6° 73.1° - - 1008.0
6/27 9:50am 276 5 G 8 92° 10% - - 27° 92.6° 73.1° - - 1008.0
6/27 9:40am 268 5 G 8 92° 9% - - 24° 92.6° 73.1° - - 1008.0
6/27 9:30am 267 5 G 9 92° 9% - - 24° 92.6° 73.1° - - 1008.0
6/27 9:20am 281 3 G 6 92° 9% - - 26° 92.6° 73.1° - - 1008.0
6/27 9:10am 262 2 G 4 91° 10% - - 26° 92.2° 73.1° - - 1008.0
6/27 9:00am 245 1 G 2 91° 10% - - 27° 92.2° 73.1° - - 1008.0
6/27 8:50am 163 1 G 4 89° 11% - - 28° 90.1° 73.1° - - 1008.0
6/27 8:40am 145 2 G 3 88° 11% - - 28° 88.2° 73.1° - - 1008.0
6/27 8:30am 124 1 G 2 87° 12% - - 29° 88.2° 73.1° - - 1008.0
6/27 8:20am 136 2 G 4 84° 14% - - 30° 85.7° 73.1° - - 1009.0
6/27 8:10am 154 2 G 3 83° 15% - - 30° 83.6° 73.1° - - 1009.0
6/27 8:00am 180 1 G 2 82° 16% - - 31° 82.4° 73.1° - - 1009.0
6/27 7:40am 183 0 G 1 80° 16% - - 29° 80.2° 73.1° - - 1009.0
6/27 7:30am 116 0 G 1 79° 17% - - 30° 79.6° 73.1° - - 1009.0
6/27 7:20am 132 1 G 3 77° 17% - - 29° 79.3° 73.1° - - 1009.0
6/27 7:10am 141 1 G 2 77° 16% - - 28° 79.3° 73.1° - - 1009.0
6/27 7:00am 166 1 G 2 77° 14% - - 25° 79.3° 73.1° - - 1009.0
6/27 6:50am 140 0 G 2 77° 15% - - 26° 79.3° 73.1° - - 1009.0
6/27 6:40am 173 0 G 1 77° 15% - - 25° 79.3° 73.1° - - 1009.0
6/27 6:30am 159 0 G 1 78° 14% - - 25° 79.3° 73.1° - - 1009.0
6/27 6:20am 142 0 G 2 77° 14% - - 24° 79.3° 73.1° - - 1009.0
6/27 6:10am 235 0 G 2 76° 15% - - 25° 79.3° 73.1° - - 1009.0
6/27 6:00am 234 2 G 3 75° 16% - - 26° 79.3° 73.1° - - 1009.0
6/27 5:50am 228 1 G 2 74° 17% - - 26° 79.3° 73.1° - - 1009.0
6/27 5:40am 205 1 G 2 74° 18% - - 27° 79.3° 73.1° - - 1009.0
6/27 5:30am 189 0 G 2 73° 18% - - 27° 79.3° 73.1° - - 1009.0
6/27 5:20am 102 0 G 1 74° 18% - - 27° 79.3° 73.3° - - 1009.0
6/27 5:10am 79 0 G 2 74° 18% - - 27° 79.3° 73.8° - - 1009.0
6/27 5:00am 184 0 G 1 74° 17% - - 27° 79.3° 74° - - 1009.0
6/27 4:50am 156 0 G 2 74° 18% - - 28° 79.3° 74° - - 1009.0
6/27 4:40am 194 0 G 2 74° 18% - - 28° 79.3° 74° - - 1009.0
6/27 4:30am 175 0 G 1 75° 18% - - 28° 79.3° 74.3° - - 1009.0
6/27 4:20am 149 0 G 2 75° 18% - - 28° 79.3° 74.5° - - 1009.0
6/27 4:10am 201 0 G 1 75° 18% - - 28° 79.3° 74.7° - - 1009.0
6/27 4:00am 81 0 G 1 75° 18% - - 29° 79.3° 74.9° - - 1009.0
6/27 3:50am 164 0 G 1 76° 18% - - 29° 79.3° 75.7° - - 1008.0
6/27 3:40am 196 1 G 2 77° 17% - - 29° 79.3° 75.7° - - 1008.0
6/27 3:30am 240 0 G 2 77° 17% - - 29° 79.3° 75.7° - - 1008.0
6/27 3:20am 231 0 G 2 77° 18% - - 30° 79.3° 75.7° - - 1008.0
6/27 3:10am 220 1 G 2 76° 18% - - 30° 79.3° 75.7° - - 1008.0
6/27 3:00am 207 1 G 2 76° 19% - - 30° 79.3° 75.7° - - 1009.0
6/27 2:50am 206 1 G 2 76° 19% - - 31° 79.3° 75.9° - - 1009.0
6/27 2:40am 172 1 G 2 76° 19% - - 31° 79.3° 75.9° - - 1009.0
6/27 2:30am 183 0 G 2 76° 20% - - 32° 79.3° 75.9° - - 1009.0
6/27 2:20am 173 1 G 2 77° 19% - - 32° 79.3° 76.1° - - 1009.0
6/27 2:10am 238 1 G 2 77° 20% - - 33° 79.3° 76.1° - - 1009.0
6/27 2:00am 229 2 G 3 77° 20% - - 33° 79.3° 76.1° - - 1009.0
6/27 1:50am 232 2 G 3 77° 21% - - 33° 79.3° 76.1° - - 1009.0
6/27 1:40am 234 2 G 3 77° 21% - - 34° 79.3° 76.1° - - 1009.0
6/27 1:30am 234 1 G 2 76° 21% - - 34° 79.3° 76.1° - - 1009.0
6/27 1:20am 127 0 G 1 77° 21% - - 34° 79.3° 76.4° - - 1009.0
6/27 1:10am 139 0 G 1 77° 20% - - 34° 79.3° 77° - - 1009.0
6/27 1:00am 233 1 G 3 78° 21% - - 34° 79.3° 77.4° - - 1009.0
6/27 12:50am 229 2 G 3 78° 21% - - 35° 79.3° 77.4° - - 1009.0
6/27 12:40am 204 1 G 3 78° 22% - - 36° 79.3° 77.5° - - 1009.0
6/27 12:30am 143 2 G 3 78° 22% - - 36° 79.3° 78.1° - - 1009.0
6/27 12:20am 158 1 G 2 78° 23% - - 37° 79.3° 78.1° - - 1010.0
6/27 12:10am 131 1 G 3 79° 22% - - 37° 79.3° 78.4° - - 1010.0
6/27 12:00am 135 1 G 3 79° 22% - - 37° 101° 72.6° - - 1010.0
6/26 11:50pm 142 1 G 2 79° 24% - - 39° 101° 72.6° - - 1010.0
6/26 11:40pm 148 0 G 2 79° 24% - - 39° 101° 72.6° - - 1010.0
6/26 11:30pm 222 0 G 1 78° 25% - - 40° 101° 72.6° - - 1010.0
6/26 11:20pm 192 0 G 1 78° 26% - - 40° 101° 72.6° - - 1010.0
6/26 11:10pm 167 0 G 2 78° 26% - - 40° 101° 72.6° - - 1010.0
6/26 11:00pm 135 2 G 2 79° 26% - - 41° 101° 72.6° - - 1010.0
6/26 10:50pm 64 1 G 1 80° 23% - - 39° 101° 72.6° - - 1010.0
6/26 10:40pm 55 1 G 1 80° 23% - - 39° 101° 72.6° - - 1010.0
6/26 10:30pm 91 2 G 2 81° 22% - - 39° 101° 72.6° - - 1010.0
6/26 10:20pm 119 2 G 4 80° 24% - - 40° 101° 72.6° - - 1010.0
6/26 10:10pm 8 1 G 6 82° 21% - - 38° 101° 72.6° - - 1010.0
6/26 10:00pm 300 4 G 8 83° 21% - - 39° 101° 72.6° - - 1010.0
6/26 9:50pm 297 4 G 7 83° 21% - - 39° 101° 72.6° - - 1010.0
6/26 9:40pm 299 4 G 7 84° 19% - - 37° 101° 72.6° - - 1009.0
6/26 9:30pm 304 3 G 5 85° 15% - - 33° 101° 72.6° - - 1009.0
6/26 9:20pm 297 4 G 6 86° 13% - - 30° 101° 72.6° - - 1009.0
6/26 9:10pm 281 4 G 5 87° 13% - - 30° 101° 72.6° - - 1009.0
6/26 9:00pm 265 3 G 4 87° 14% - - 31° 101° 72.6° - - 1009.0
6/26 8:50pm 257 3 G 4 87° 13% - - 30° 101° 72.6° - - 1009.0
6/26 8:40pm 259 3 G 4 87° 12% - - 28° 101° 72.6° - - 1009.0
6/26 8:30pm 274 3 G 4 88° 11% - - 26° 101° 72.6° - - 1009.0
6/26 8:20pm 273 4 G 7 89° 10% - - 25° 101° 72.6° - - 1009.0
6/26 8:10pm 276 5 G 8 89° 10% - - 24° 101° 72.6° - - 1008.0
6/26 8:00pm 271 5 G 6 88° 13% - - 30° 101° 72.6° - - 1008.0
6/26 7:50pm 260 6 G 8 89° 14% - - 34° 101° 72.6° - - 1008.0
6/26 7:40pm 264 6 G 8 90° 12% - - 30° 101° 72.6° - - 1008.0
6/26 7:30pm 276 7 G 9 92° 9% - - 26° 101° 72.6° - - 1008.0
6/26 7:20pm 287 5 G 10 92° 10% - - 29° 101° 72.6° - - 1008.0
6/26 7:10pm 282 6 G 14 92° 12% - - 31° 101° 72.6° - - 1008.0
6/26 7:00pm 272 6 G 10 92° 16% - - 39° 101° 72.6° - - 1008.0
6/26 6:50pm 267 5 G 9 93° 17% - - 41° 101° 72.6° - - 1008.0
6/26 6:40pm 265 6 G 9 93° 18% - - 43° 101° 72.6° - - 1008.0
6/26 6:30pm 270 6 G 11 93° 17% - - 41° 101° 72.6° - - 1008.0
6/26 6:20pm 269 7 G 11 93° 17% - - 42° 101° 72.6° - - 1008.0
6/26 6:10pm 270 7 G 11 94° 15% - - 40° 101° 72.6° - - 1008.0
6/26 6:00pm 263 8 G 11 95° 14% - - 39° 101° 72.6° - - 1008.0
6/26 5:50pm 270 8 G 12 95° 14% - - 39° 101° 72.6° - - 1008.0
6/26 5:40pm 273 8 G 11 95° 15% - - 40° 101° 72.6° - - 1008.0
6/26 5:30pm 271 8 G 13 96° 15% - - 40° 101° 72.6° - - 1008.0
6/26 5:20pm 268 8 G 14 96° 16% - - 42° 101° 72.6° - - 1008.0
6/26 5:10pm 257 9 G 15 97° 15% - - 42° 101° 72.6° - - 1008.0
6/26 5:00pm 253 8 G 13 97° 17% - - 45° 101° 72.6° - - 1008.0
6/26 4:50pm 269 8 G 12 97° 17% - - 45° 101° 72.6° - - 1008.0
6/26 4:40pm 266 8 G 13 97° 17% - - 45° 101° 72.6° - - 1008.0
6/26 4:30pm 259 7 G 12 98° 17% - - 45° 101° 72.6° - - 1008.0
6/26 4:20pm 281 7 G 13 98° 16% - - 44° 101° 72.6° - - 1009.0
6/26 4:10pm 283 8 G 13 98° 15% - - 43° 101° 72.6° - - 1009.0
6/26 4:00pm 289 7 G 13 99° 14% - - 42° 101° 72.6° - - 1008.0
6/26 3:50pm 288 8 G 14 99° 14% - - 42° 101° 72.6° - - 1009.0
6/26 3:40pm 285 9 G 14 99° 14% - - 41° 101° 72.6° - - 1009.0
6/26 3:30pm 281 7 G 11 100° 15% - - 43° 101° 72.6° - - 1009.0
6/26 3:20pm 285 7 G 13 100° 14% - - 42° 101° 72.6° - - 1009.0
6/26 3:10pm 279 8 G 13 99° 13% - - 40° 100.7° 72.6° - - 1009.0
6/26 3:00pm 278 8 G 14 99° 13% - - 40° 100.7° 72.6° - - 1009.0
6/26 2:50pm 288 8 G 15 100° 12% - - 38° 100.7° 72.6° - - 1009.0
6/26 2:40pm 258 9 G 15 100° 12% - - 38° 100.7° 72.6° - - 1009.0
6/26 2:30pm 253 10 G 14 100° 12% - - 38° 100.7° 72.6° - - 1009.0
6/26 2:20pm 261 9 G 15 100° 12% - - 39° 100.7° 72.6° - - 1009.0
6/26 2:10pm 254 8 G 15 100° 12% - - 38° 100.7° 72.6° - - 1009.0
6/26 2:00pm 269 10 G 16 99° 12% - - 38° 100.7° 72.6° - - 1009.0
6/26 1:50pm 263 9 G 14 99° 12% - - 38° 100.7° 72.6° - - 1009.0
6/26 1:40pm 259 9 G 15 99° 12% - - 37° 100.7° 72.6° - - 1009.0
6/26 1:30pm 262 10 G 15 99° 11% - - 35° 100.7° 72.6° - - 1009.0
6/26 1:20pm 259 8 G 14 99° 11% - - 36° 100.7° 72.6° - - 1009.0
6/26 1:10pm 262 8 G 14 99° 13% - - 39° 100.7° 72.6° - - 1009.0
6/26 1:00pm 252 9 G 13 99° 13% - - 39° 100.7° 72.6° - - 1009.0
6/26 12:50pm 254 8 G 14 99° 13% - - 40° 100.7° 72.6° - - 1009.0
6/26 12:40pm 258 8 G 13 99° 15% - - 43° 100.7° 72.6° - - 1009.0
6/26 12:30pm 260 8 G 13 99° 16% - - 45° 100.7° 72.6° - - 1009.0
6/26 12:20pm 256 8 G 13 99° 16% - - 44° 100.7° 72.6° - - 1009.0
6/26 12:10pm 275 7 G 12 98° 15% - - 43° 100.7° 72.6° - - 1009.0
6/26 12:00pm 272 8 G 12 97° 17% - - 45° 100.7° 72.6° - - 1009.0
6/26 11:50am 266 7 G 12 98° 16% - - 44° 100.7° 72.6° - - 1009.0
6/26 11:40am 280 6 G 11 98° 19% - - 48° 100.7° 72.6° - - 1009.0
6/26 11:30am 259 9 G 12 97° 18% - - 47° 100.7° 72.6° - - 1009.0
6/26 11:20am 265 9 G 14 98° 18% - - 47° 100.7° 72.6° - - 1009.0
6/26 11:10am 260 8 G 13 99° 17% - - 46° 100.7° 72.6° - - 1009.0
6/26 11:00am 269 6 G 13 98° 15% - - 42° 100.7° 72.6° - - 1009.0
6/26 10:50am 273 8 G 12 96° 17% - - 45° 100.7° 72.6° - - 1009.0
6/26 10:40am 270 8 G 11 96° 17% - - 45° 100.7° 72.6° - - 1009.0
6/26 10:30am 267 6 G 10 97° 17% - - 45° 100.7° 72.6° - - 1009.0
6/26 10:20am 264 7 G 11 97° 16% - - 44° 100.7° 72.6° - - 1009.0
6/26 10:10am 263 7 G 12 97° 14% - - 40° 100.7° 72.6° - - 1009.0
6/26 10:00am 267 6 G 11 99° 12% - - 38° 100.7° 72.6° - - 1009.0
6/26 9:50am 317 4 G 7 100° 8% - - 29° 100.7° 72.6° - - 1009.0
6/26 9:40am 333 4 G 7 100° 7% - - 25° 100.6° 72.6° - - 1009.0
6/26 9:30am 336 3 G 6 100° 7% - - 27° 100.6° 72.6° - - 1009.0
6/26 9:20am 348 2 G 5 99° 10% - - 32° 100.5° 72.6° - - 1009.0
6/26 9:10am 163 1 G 3 98° 12% - - 37° 99.2° 72.6° - - 1009.0
6/26 9:00am 185 1 G 2 96° 13% - - 38° 96.8° 72.6° - - 1009.0
6/26 8:50am 118 1 G 3 95° 14% - - 39° 95.5° 72.6° - - 1009.0
6/26 8:40am 125 1 G 3 93° 16% - - 39° 93.8° 72.6° - - 1009.0
6/26 8:30am 177 2 G 3 90° 17% - - 39° 91.5° 72.6° - - 1009.0
6/26 8:20am 173 2 G 3 89° 18% - - 40° 89.7° 72.6° - - 1009.0
6/26 8:10am 172 1 G 3 88° 18% - - 39° 88.9° 72.6° - - 1009.0
6/26 8:00am 182 0 G 1 87° 18% - - 39° 87.7° 72.6° - - 1009.0
6/26 7:50am 168 1 G 2 85° 20% - - 39° 86.6° 72.6° - - 1009.0
6/26 7:40am 171 1 G 2 84° 20% - - 38° 86.6° 72.6° - - 1009.0
6/26 7:30am 159 1 G 2 84° 20% - - 39° 86.6° 72.6° - - 1009.0
6/26 7:20am 118 1 G 3 84° 23% - - 42° 86.6° 72.6° - - 1009.0
6/26 7:10am 115 0 G 2 82° 25% - - 43° 86.6° 72.6° - - 1009.0
6/26 7:00am 105 0 G 1 83° 29% - - 47° 86.6° 72.6° - - 1009.0
6/26 6:50am 43 0 G 1 84° 21% - - 40° 86.6° 72.6° - - 1009.0
6/26 6:40am 140 0 G 1 82° 21% - - 39° 86.6° 72.6° - - 1009.0
6/26 6:30am 230 1 G 2 81° 22% - - 38° 86.6° 72.6° - - 1009.0
6/26 6:20am 227 1 G 2 81° 23% - - 39° 86.6° 72.6° - - 1009.0
6/26 6:10am 158 1 G 2 81° 23% - - 39° 86.6° 72.6° - - 1009.0
6/26 6:00am 196 0 G 1 80° 23% - - 39° 86.6° 72.6° - - 1009.0